createdAt,value
2017-01-04T00:00:07.944Z,957.46
2017-01-04T00:01:08.386Z,957.48
2017-01-04T00:02:08.891Z,957.47
2017-01-04T00:03:08.591Z,957.41
2017-01-04T00:04:08.853Z,957.44
2017-01-04T00:05:08.720Z,957.37
2017-01-04T00:06:08.188Z,957.38
2017-01-04T00:07:08.598Z,957.33
2017-01-04T00:08:09.244Z,957.35
2017-01-04T00:09:08.665Z,957.37
2017-01-04T00:10:08.010Z,957.33
2017-01-04T00:11:08.497Z,957.29
2017-01-04T00:12:08.260Z,957.26
2017-01-04T00:13:08.784Z,957.31
2017-01-04T00:14:08.297Z,957.30
2017-01-04T00:15:08.864Z,957.23
2017-01-04T00:16:07.907Z,957.18
2017-01-04T00:17:09.785Z,957.18
2017-01-04T00:18:07.589Z,957.10
2017-01-04T00:19:08.347Z,957.13
2017-01-04T00:20:08.850Z,957.02
2017-01-04T00:21:08.324Z,957.03
2017-01-04T00:22:08.992Z,957.00
2017-01-04T00:23:08.417Z,956.95
2017-01-04T00:24:08.822Z,956.95
2017-01-04T00:25:08.396Z,956.93
2017-01-04T00:26:08.886Z,956.85
2017-01-04T00:27:27.595Z,956.84
2017-01-04T00:28:09.112Z,956.79
2017-01-04T00:29:08.473Z,956.79
2017-01-04T00:30:09.388Z,956.90
2017-01-04T00:31:08.997Z,956.89
2017-01-04T00:32:08.351Z,956.78
2017-01-04T00:33:09.047Z,956.80
2017-01-04T00:34:08.451Z,956.76
2017-01-04T00:35:09.666Z,956.77
2017-01-04T00:36:09.024Z,956.76
2017-01-04T00:37:08.517Z,956.78
2017-01-04T00:38:09.105Z,956.78
2017-01-04T00:39:08.498Z,956.76
2017-01-04T00:40:09.372Z,956.70
2017-01-04T00:41:08.481Z,956.70
2017-01-04T00:42:09.378Z,956.61
2017-01-04T00:43:08.010Z,956.73
2017-01-04T00:44:08.378Z,956.57
2017-01-04T00:45:29.160Z,956.61
2017-01-04T00:46:08.399Z,956.64
2017-01-04T00:47:08.909Z,956.65
2017-01-04T00:48:08.068Z,956.44
2017-01-04T00:49:08.239Z,956.56
2017-01-04T00:50:09.237Z,956.65
2017-01-04T00:51:08.452Z,956.55
2017-01-04T00:52:08.964Z,956.55
2017-01-04T00:53:08.021Z,956.54
2017-01-04T00:54:09.391Z,956.46
2017-01-04T00:55:08.986Z,956.48
2017-01-04T00:56:08.314Z,956.48
2017-01-04T00:57:08.673Z,956.46
2017-01-04T00:58:09.342Z,956.47
2017-01-04T00:59:09.621Z,956.48
2017-01-04T01:00:08.979Z,956.39
2017-01-04T01:01:08.443Z,956.35
2017-01-04T01:02:08.815Z,956.49
2017-01-04T01:03:07.901Z,956.39
2017-01-04T01:04:08.810Z,956.48
2017-01-04T01:05:08.105Z,956.46
2017-01-04T01:06:09.548Z,956.49
2017-01-04T01:07:08.839Z,956.51
2017-01-04T01:08:08.222Z,956.58
2017-01-04T01:09:08.016Z,956.68
2017-01-04T01:10:08.432Z,956.71
2017-01-04T01:11:09.370Z,956.63
2017-01-04T01:12:08.758Z,956.59
2017-01-04T01:13:08.708Z,956.61
2017-01-04T01:14:08.099Z,956.61
2017-01-04T01:15:08.800Z,956.69
2017-01-04T01:16:08.047Z,956.64
2017-01-04T01:17:08.649Z,956.61
2017-01-04T01:18:08.036Z,956.67
2017-01-04T01:19:08.329Z,956.65
2017-01-04T01:20:08.706Z,956.66
2017-01-04T01:21:08.033Z,956.59
2017-01-04T01:22:09.069Z,956.64
2017-01-04T01:23:08.155Z,956.60
2017-01-04T01:24:34.688Z,956.57
2017-01-04T01:25:09.121Z,956.63
2017-01-04T01:26:08.134Z,956.53
2017-01-04T01:27:08.733Z,956.55
2017-01-04T01:28:08.044Z,956.51
2017-01-04T01:29:08.489Z,956.55
2017-01-04T01:30:08.463Z,956.53
2017-01-04T01:31:08.687Z,956.50
2017-01-04T01:32:09.236Z,956.47
2017-01-04T01:33:08.459Z,956.51
2017-01-04T01:34:09.049Z,956.47
2017-01-04T01:35:07.978Z,956.46
2017-01-04T01:36:09.361Z,956.48
2017-01-04T01:37:08.590Z,956.54
2017-01-04T01:38:07.653Z,956.61
2017-01-04T01:39:09.541Z,956.58
2017-01-04T01:40:08.882Z,956.61
2017-01-04T01:41:09.341Z,956.57
2017-01-04T01:42:08.675Z,956.58
2017-01-04T01:43:08.127Z,956.56
2017-01-04T01:44:09.182Z,956.54
2017-01-04T01:45:08.524Z,956.65
2017-01-04T01:46:08.888Z,956.55
2017-01-04T01:47:08.995Z,956.59
2017-01-04T01:48:09.719Z,956.56
2017-01-04T01:49:09.040Z,956.58
2017-01-04T01:50:08.735Z,956.55
2017-01-04T01:51:09.101Z,956.53
2017-01-04T01:52:08.437Z,956.49
2017-01-04T01:53:08.790Z,956.50
2017-01-04T01:54:08.139Z,956.52
2017-01-04T01:55:08.464Z,956.51
2017-01-04T01:56:08.421Z,956.57
2017-01-04T01:57:08.667Z,956.49
2017-01-04T01:58:08.230Z,956.58
2017-01-04T01:59:08.577Z,956.48
2017-01-04T02:00:08.904Z,956.51
2017-01-04T02:01:08.679Z,956.48
2017-01-04T02:02:08.908Z,956.42
2017-01-04T02:03:08.633Z,956.48
2017-01-04T02:04:09.073Z,956.39
2017-01-04T02:05:08.479Z,956.43
2017-01-04T02:06:09.208Z,956.41
2017-01-04T02:07:08.408Z,956.40
2017-01-04T02:08:08.858Z,956.38
2017-01-04T02:09:09.324Z,956.43
2017-01-04T02:10:08.329Z,956.25
2017-01-04T02:11:08.425Z,956.33
2017-01-04T02:12:10.632Z,956.35
2017-01-04T02:13:07.816Z,956.28
2017-01-04T02:14:07.591Z,956.22
2017-01-04T02:15:08.844Z,956.23
2017-01-04T02:16:08.095Z,956.28
2017-01-04T02:17:08.420Z,956.33
2017-01-04T02:18:08.572Z,956.22
2017-01-04T02:19:08.688Z,956.28
2017-01-04T02:20:08.027Z,956.18
2017-01-04T02:21:08.521Z,956.30
2017-01-04T02:22:08.895Z,956.25
2017-01-04T02:23:08.194Z,956.21
2017-01-04T02:24:08.287Z,956.18
2017-01-04T02:25:08.673Z,956.12
2017-01-04T02:26:08.318Z,956.14
2017-01-04T02:27:08.760Z,956.16
2017-01-04T02:28:07.815Z,956.19
2017-01-04T02:29:08.316Z,956.19
2017-01-04T02:30:08.639Z,956.15
2017-01-04T02:31:08.565Z,956.13
2017-01-04T02:32:08.589Z,956.10
2017-01-04T02:33:08.221Z,956.14
2017-01-04T02:34:07.708Z,956.15
2017-01-04T02:35:08.116Z,956.07
2017-01-04T02:36:08.542Z,956.13
2017-01-04T02:37:09.018Z,956.06
2017-01-04T02:38:08.189Z,956.05
2017-01-04T02:39:08.486Z,956.11
2017-01-04T02:40:08.870Z,956.11
2017-01-04T02:41:08.147Z,956.04
2017-01-04T02:42:08.362Z,956.03
2017-01-04T02:43:10.222Z,956.07
2017-01-04T02:44:08.562Z,956.12
2017-01-04T02:45:08.056Z,956.06
2017-01-04T02:46:08.554Z,956.00
2017-01-04T02:47:08.666Z,955.89
2017-01-04T02:48:08.600Z,955.91
2017-01-04T02:49:08.573Z,955.87
2017-01-04T02:50:09.113Z,955.91
2017-01-04T02:51:08.244Z,955.84
2017-01-04T02:52:08.853Z,955.73
2017-01-04T02:53:07.854Z,955.68
2017-01-04T02:54:08.566Z,955.68
2017-01-04T02:55:08.205Z,955.82
2017-01-04T02:56:08.569Z,955.62
2017-01-04T02:57:09.309Z,955.71
2017-01-04T02:58:08.969Z,955.64
2017-01-04T02:59:08.055Z,955.60
2017-01-04T03:00:08.484Z,955.53
2017-01-04T03:01:09.730Z,955.53
2017-01-04T03:02:08.040Z,955.44
2017-01-04T03:03:08.300Z,955.35
2017-01-04T03:04:08.595Z,955.45
2017-01-04T03:05:08.988Z,955.44
2017-01-04T03:06:08.302Z,955.47
2017-01-04T03:07:08.865Z,955.50
2017-01-04T03:08:08.090Z,955.50
2017-01-04T03:09:08.157Z,955.40
2017-01-04T03:10:08.525Z,955.43
2017-01-04T03:11:09.256Z,955.37
2017-01-04T03:12:08.657Z,955.46
2017-01-04T03:13:07.927Z,955.33
2017-01-04T03:14:08.330Z,955.27
2017-01-04T03:15:08.570Z,955.32
2017-01-04T03:16:08.777Z,955.33
2017-01-04T03:17:09.386Z,955.35
2017-01-04T03:18:08.559Z,955.36
2017-01-04T03:19:08.788Z,955.46
2017-01-04T03:20:09.536Z,955.33
2017-01-04T03:21:08.437Z,955.36
2017-01-04T03:22:08.294Z,955.38
2017-01-04T03:23:08.579Z,955.35
2017-01-04T03:24:07.837Z,955.39
2017-01-04T03:25:08.517Z,955.42
2017-01-04T03:26:08.748Z,955.39
2017-01-04T03:27:08.309Z,955.36
2017-01-04T03:28:08.728Z,955.33
2017-01-04T03:29:08.592Z,955.28
2017-01-04T03:30:08.185Z,955.31
2017-01-04T03:31:08.316Z,955.26
2017-01-04T03:32:08.528Z,955.30
2017-01-04T03:33:08.792Z,955.13
2017-01-04T03:34:07.779Z,955.27
2017-01-04T03:35:08.412Z,955.19
2017-01-04T03:36:08.441Z,955.14
2017-01-04T03:37:08.822Z,955.20
2017-01-04T03:38:08.297Z,955.28
2017-01-04T03:39:08.486Z,955.08
2017-01-04T03:40:08.936Z,955.04
2017-01-04T03:41:08.076Z,955.13
2017-01-04T03:42:08.806Z,955.17
2017-01-04T03:43:08.243Z,955.04
2017-01-04T03:44:08.680Z,955.06
2017-01-04T03:45:07.897Z,955.04
2017-01-04T03:46:08.391Z,955.01
2017-01-04T03:47:09.175Z,954.95
2017-01-04T03:48:08.286Z,955.05
2017-01-04T03:49:08.614Z,954.98
2017-01-04T03:50:09.085Z,955.03
2017-01-04T03:51:08.242Z,954.98
2017-01-04T03:52:08.602Z,954.96
2017-01-04T03:53:08.164Z,954.98
2017-01-04T03:54:08.565Z,954.90
2017-01-04T03:55:08.940Z,954.95
2017-01-04T03:56:08.698Z,954.95
2017-01-04T03:57:08.191Z,954.88
2017-01-04T03:58:08.657Z,954.89
2017-01-04T03:59:08.222Z,954.92
2017-01-04T04:00:08.739Z,954.83
2017-01-04T04:01:08.262Z,954.77
2017-01-04T04:02:08.731Z,954.70
2017-01-04T04:03:07.969Z,954.77
2017-01-04T04:04:08.623Z,954.69
2017-01-04T04:05:07.945Z,954.74
2017-01-04T04:06:08.339Z,954.62
2017-01-04T04:07:08.499Z,954.66
2017-01-04T04:08:08.902Z,954.71
2017-01-04T04:09:07.975Z,954.73
2017-01-04T04:10:08.477Z,954.65
2017-01-04T04:11:08.829Z,954.69
2017-01-04T04:12:08.231Z,954.63
2017-01-04T04:13:08.325Z,954.63
2017-01-04T04:14:08.791Z,954.69
2017-01-04T04:15:08.419Z,954.62
2017-01-04T04:16:08.856Z,954.58
2017-01-04T04:17:08.393Z,954.62
2017-01-04T04:18:08.860Z,954.59
2017-01-04T04:19:08.328Z,954.52
2017-01-04T04:20:08.668Z,954.60
2017-01-04T04:21:07.906Z,954.50
2017-01-04T04:22:08.155Z,954.56
2017-01-04T04:23:08.843Z,954.44
2017-01-04T04:24:08.438Z,954.43
2017-01-04T04:25:08.706Z,954.39
2017-01-04T04:26:07.870Z,954.38
2017-01-04T04:27:09.093Z,954.32
2017-01-04T04:28:08.620Z,954.25
2017-01-04T04:29:07.800Z,954.31
2017-01-04T04:30:07.906Z,954.20
2017-01-04T04:31:07.985Z,954.16
2017-01-04T04:32:07.924Z,954.07
2017-01-04T04:33:08.402Z,954.10
2017-01-04T04:34:08.602Z,954.01
2017-01-04T04:35:08.947Z,953.99
2017-01-04T04:36:08.278Z,953.96
2017-01-04T04:37:08.610Z,953.93
2017-01-04T04:38:08.947Z,953.91
2017-01-04T04:39:08.337Z,953.92
2017-01-04T04:40:08.642Z,953.93
2017-01-04T04:41:07.902Z,953.93
2017-01-04T04:42:08.563Z,953.86
2017-01-04T04:43:08.975Z,953.81
2017-01-04T04:44:08.475Z,953.82
2017-01-04T04:45:08.865Z,953.70
2017-01-04T04:46:08.473Z,953.77
2017-01-04T04:47:08.960Z,953.67
2017-01-04T04:48:08.293Z,953.67
2017-01-04T04:49:08.837Z,953.74
2017-01-04T04:50:08.272Z,953.67
2017-01-04T04:51:08.743Z,953.64
2017-01-04T04:52:07.990Z,953.64
2017-01-04T04:53:08.686Z,953.67
2017-01-04T04:54:08.172Z,953.67
2017-01-04T04:55:08.263Z,953.65
2017-01-04T04:56:08.813Z,953.78
2017-01-04T04:57:08.231Z,953.82
2017-01-04T04:58:08.635Z,953.69
2017-01-04T04:59:07.880Z,953.94
2017-01-04T05:00:08.598Z,953.75
2017-01-04T05:01:08.954Z,953.76
2017-01-04T05:02:07.992Z,953.62
2017-01-04T05:03:08.752Z,953.72
2017-01-04T05:04:08.264Z,953.76
2017-01-04T05:05:08.621Z,953.83
2017-01-04T05:06:08.007Z,953.83
2017-01-04T05:07:08.426Z,953.90
2017-01-04T05:08:08.787Z,953.95
2017-01-04T05:09:08.231Z,953.80
2017-01-04T05:10:08.614Z,953.79
2017-01-04T05:11:08.997Z,953.86
2017-01-04T05:12:08.343Z,953.81
2017-01-04T05:13:08.736Z,953.79
2017-01-04T05:14:07.983Z,953.70
2017-01-04T05:15:08.065Z,953.72
2017-01-04T05:16:08.395Z,953.72
2017-01-04T05:17:09.326Z,953.69
2017-01-04T05:18:08.671Z,953.68
2017-01-04T05:19:07.717Z,953.69
2017-01-04T05:20:08.784Z,953.70
2017-01-04T05:21:08.490Z,953.75
2017-01-04T05:22:08.652Z,953.68
2017-01-04T05:23:08.159Z,953.75
2017-01-04T05:24:08.431Z,953.68
2017-01-04T05:25:11.680Z,953.77
2017-01-04T05:26:08.556Z,953.77
2017-01-04T05:27:08.913Z,953.73
2017-01-04T05:28:08.351Z,953.65
2017-01-04T05:29:08.733Z,953.59
2017-01-04T05:30:08.200Z,953.48
2017-01-04T05:31:08.477Z,953.45
2017-01-04T05:32:08.704Z,953.54
2017-01-04T05:33:08.077Z,953.53
2017-01-04T05:34:08.431Z,953.32
2017-01-04T05:35:08.652Z,953.23
2017-01-04T05:36:07.691Z,953.40
2017-01-04T05:37:08.474Z,953.18
2017-01-04T05:38:08.852Z,953.24
2017-01-04T05:39:08.318Z,953.24
2017-01-04T05:40:08.517Z,953.27
2017-01-04T05:41:09.049Z,953.37
2017-01-04T05:42:08.349Z,953.50
2017-01-04T05:43:08.766Z,953.27
2017-01-04T05:44:08.029Z,953.32
2017-01-04T05:45:08.497Z,953.37
2017-01-04T05:46:08.823Z,953.29
2017-01-04T05:47:08.252Z,953.29
2017-01-04T05:48:08.502Z,953.29
2017-01-04T05:49:08.876Z,953.29
2017-01-04T05:50:08.403Z,953.51
2017-01-04T05:51:08.885Z,953.37
2017-01-04T05:52:08.038Z,953.43
2017-01-04T05:53:08.711Z,953.39
2017-01-04T05:54:08.050Z,953.45
2017-01-04T05:55:08.408Z,953.31
2017-01-04T05:56:08.836Z,953.32
2017-01-04T05:57:08.051Z,953.34
2017-01-04T05:58:08.293Z,953.38
2017-01-04T05:59:08.871Z,953.32
2017-01-04T06:00:08.254Z,953.22
2017-01-04T06:01:08.612Z,953.28
2017-01-04T06:02:09.715Z,953.09
2017-01-04T06:03:27.519Z,953.20
2017-01-04T06:04:08.774Z,952.98
2017-01-04T06:05:08.116Z,953.10
2017-01-04T06:06:08.549Z,953.17
2017-01-04T06:07:08.805Z,953.06
2017-01-04T06:08:08.999Z,953.12
2017-01-04T06:09:08.412Z,953.10
2017-01-04T06:10:08.407Z,953.13
2017-01-04T06:11:08.804Z,953.07
2017-01-04T06:12:07.998Z,953.02
2017-01-04T06:13:08.824Z,953.10
2017-01-04T06:14:08.099Z,953.08
2017-01-04T06:15:08.433Z,953.00
2017-01-04T06:16:08.810Z,953.08
2017-01-04T06:18:07.960Z,953.14
2017-01-04T06:19:27.965Z,953.06
2017-01-04T06:20:08.309Z,953.09
2017-01-04T06:21:08.918Z,953.07
2017-01-04T06:22:08.526Z,953.02
2017-01-04T06:23:08.778Z,952.88
2017-01-04T06:24:07.953Z,952.87
2017-01-04T06:25:08.480Z,952.79
2017-01-04T06:26:08.929Z,952.87
2017-01-04T06:27:09.082Z,952.72
2017-01-04T06:28:09.367Z,952.88
2017-01-04T06:29:08.451Z,952.66
2017-01-04T06:30:09.380Z,952.86
2017-01-04T06:31:08.653Z,952.76
2017-01-04T06:32:08.059Z,952.77
2017-01-04T06:33:08.436Z,952.78
2017-01-04T06:34:08.810Z,952.77
2017-01-04T06:35:08.073Z,952.63
2017-01-04T06:36:08.724Z,952.85
2017-01-04T06:37:08.033Z,952.62
2017-01-04T06:38:08.076Z,952.61
2017-01-04T06:39:09.842Z,952.57
2017-01-04T06:40:08.119Z,952.53
2017-01-04T06:41:08.664Z,952.56
2017-01-04T06:42:07.992Z,952.51
2017-01-04T06:43:08.230Z,952.66
2017-01-04T06:44:08.779Z,952.59
2017-01-04T06:45:07.933Z,952.56
2017-01-04T06:46:08.977Z,952.55
2017-01-04T06:47:09.309Z,952.61
2017-01-04T06:48:08.730Z,952.65
2017-01-04T06:49:08.078Z,952.69
2017-01-04T06:50:08.442Z,952.59
2017-01-04T06:51:08.933Z,952.87
2017-01-04T06:52:08.412Z,952.71
2017-01-04T06:53:08.742Z,952.58
2017-01-04T06:54:21.073Z,952.60
2017-01-04T06:55:08.168Z,952.59
2017-01-04T06:56:08.334Z,952.71
2017-01-04T06:57:08.667Z,952.62
2017-01-04T06:58:08.147Z,952.66
2017-01-04T06:59:08.645Z,952.61
2017-01-04T07:00:08.102Z,952.62
2017-01-04T07:01:08.571Z,952.64
2017-01-04T07:02:08.777Z,952.59
2017-01-04T07:03:08.061Z,952.65
2017-01-04T07:04:08.689Z,952.69
2017-01-04T07:05:08.051Z,952.81
2017-01-04T07:06:08.220Z,952.70
2017-01-04T07:07:08.561Z,952.74
2017-01-04T07:08:08.950Z,952.75
2017-01-04T07:09:27.616Z,952.78
2017-01-04T07:10:08.786Z,952.73
2017-01-04T07:11:08.247Z,952.78
2017-01-04T07:12:08.599Z,952.84
2017-01-04T07:13:08.836Z,952.88
2017-01-04T07:14:08.441Z,952.65
2017-01-04T07:15:07.899Z,952.83
2017-01-04T07:16:08.235Z,952.77
2017-01-04T07:17:08.546Z,952.68
2017-01-04T07:18:08.823Z,952.71
2017-01-04T07:19:08.110Z,952.74
2017-01-04T07:20:08.724Z,952.76
2017-01-04T07:21:08.038Z,952.67
2017-01-04T07:22:08.473Z,952.67
2017-01-04T07:23:08.860Z,952.71
2017-01-04T07:24:08.089Z,952.71
2017-01-04T07:25:08.418Z,952.68
2017-01-04T07:26:08.805Z,952.72
2017-01-04T07:27:08.107Z,952.72
2017-01-04T07:28:08.465Z,952.70
2017-01-04T07:29:08.854Z,952.72
2017-01-04T07:30:07.654Z,952.73
2017-01-04T07:31:08.510Z,952.75
2017-01-04T07:32:08.811Z,952.76
2017-01-04T07:33:08.086Z,952.76
2017-01-04T07:34:08.469Z,952.75
2017-01-04T07:36:08.507Z,952.76
2017-01-04T07:37:08.827Z,952.69
2017-01-04T07:38:08.275Z,952.64
2017-01-04T07:39:08.432Z,952.59
2017-01-04T07:40:08.941Z,952.57
2017-01-04T07:41:08.324Z,952.60
2017-01-04T07:42:08.565Z,952.48
2017-01-04T07:43:09.029Z,952.51
2017-01-04T07:44:08.224Z,952.46
2017-01-04T07:45:08.632Z,952.45
2017-01-04T07:46:07.878Z,952.55
2017-01-04T07:47:08.454Z,952.42
2017-01-04T07:48:08.818Z,952.36
2017-01-04T07:49:07.850Z,952.32
2017-01-04T07:50:09.711Z,952.41
2017-01-04T07:51:09.168Z,952.45
2017-01-04T07:52:08.351Z,952.47
2017-01-04T07:53:08.552Z,952.46
2017-01-04T07:54:08.663Z,952.36
2017-01-04T07:55:07.860Z,952.36
2017-01-04T07:56:08.120Z,952.39
2017-01-04T07:57:08.568Z,952.46
2017-01-04T07:58:08.810Z,952.51
2017-01-04T07:59:08.330Z,952.55
2017-01-04T08:00:08.861Z,952.36
2017-01-04T08:01:07.830Z,952.38
2017-01-04T08:02:08.866Z,952.47
2017-01-04T08:03:08.442Z,952.40
2017-01-04T08:04:08.766Z,952.32
2017-01-04T08:05:08.114Z,952.41
2017-01-04T08:06:08.559Z,952.31
2017-01-04T08:07:09.066Z,952.20
2017-01-04T08:08:08.524Z,952.26
2017-01-04T08:09:09.768Z,952.32
2017-01-04T08:10:07.898Z,952.22
2017-01-04T08:11:08.186Z,952.13
2017-01-04T08:12:08.597Z,952.31
2017-01-04T08:13:08.669Z,952.23
2017-01-04T08:14:08.718Z,952.19
2017-01-04T08:15:07.894Z,952.24
2017-01-04T08:16:08.227Z,952.16
2017-01-04T08:17:08.885Z,952.08
2017-01-04T08:18:27.778Z,952.09
2017-01-04T08:19:08.068Z,951.97
2017-01-04T08:20:08.814Z,952.11
2017-01-04T08:21:08.125Z,952.15
2017-01-04T08:22:08.648Z,952.07
2017-01-04T08:23:07.858Z,952.10
2017-01-04T08:24:08.228Z,952.09
2017-01-04T08:25:08.771Z,952.10
2017-01-04T08:26:08.298Z,952.07
2017-01-04T08:27:08.629Z,952.07
2017-01-04T08:28:08.497Z,952.17
2017-01-04T08:29:08.531Z,952.00
2017-01-04T08:30:08.698Z,951.87
2017-01-04T08:31:08.403Z,952.18
2017-01-04T08:32:10.001Z,952.04
2017-01-04T08:33:08.308Z,952.09
2017-01-04T08:34:08.813Z,951.92
2017-01-04T08:35:08.278Z,952.13
2017-01-04T08:36:08.830Z,952.10
2017-01-04T08:37:08.159Z,952.16
2017-01-04T08:39:08.648Z,952.11
2017-01-04T08:40:07.920Z,952.10
2017-01-04T08:41:08.705Z,951.94
2017-01-04T08:42:08.189Z,951.93
2017-01-04T08:43:08.622Z,952.06
2017-01-04T08:44:07.911Z,952.07
2017-01-04T08:45:08.205Z,952.13
2017-01-04T08:46:08.949Z,952.15
2017-01-04T08:47:08.193Z,952.17
2017-01-04T08:48:08.136Z,952.08
2017-01-04T08:49:08.605Z,952.07
2017-01-04T08:50:09.028Z,952.16
2017-01-04T08:51:08.282Z,952.03
2017-01-04T08:52:08.552Z,952.10
2017-01-04T08:53:08.995Z,951.97
2017-01-04T08:54:08.609Z,952.04
2017-01-04T08:55:07.915Z,951.99
2017-01-04T08:56:08.896Z,952.00
2017-01-04T08:57:08.253Z,952.05
2017-01-04T08:58:08.919Z,951.97
2017-01-04T08:59:09.185Z,952.13
2017-01-04T09:00:09.092Z,952.11
2017-01-04T09:01:08.562Z,951.97
2017-01-04T09:02:09.052Z,952.01
2017-01-04T09:03:08.646Z,952.02
2017-01-04T09:04:08.105Z,951.97
2017-01-04T09:05:08.614Z,952.02
2017-01-04T09:06:07.853Z,952.04
2017-01-04T09:07:08.126Z,952.04
2017-01-04T09:08:08.290Z,952.06
2017-01-04T09:09:17.762Z,951.99
2017-01-04T09:10:07.690Z,952.11
2017-01-04T09:11:08.015Z,952.05
2017-01-04T09:12:08.637Z,952.10
2017-01-04T09:13:07.861Z,952.10
2017-01-04T09:14:08.346Z,952.32
2017-01-04T09:15:08.766Z,952.17
2017-01-04T09:16:08.895Z,952.14
2017-01-04T09:17:08.316Z,952.08
2017-01-04T09:18:09.057Z,952.15
2017-01-04T09:19:08.279Z,952.12
2017-01-04T09:20:09.288Z,952.10
2017-01-04T09:21:08.946Z,952.10
2017-01-04T09:22:09.104Z,952.21
2017-01-04T09:23:08.357Z,952.13
2017-01-04T09:24:09.219Z,952.13
2017-01-04T09:25:08.748Z,952.02
2017-01-04T09:26:07.946Z,952.06
2017-01-04T09:27:08.287Z,952.13
2017-01-04T09:28:10.327Z,952.02
2017-01-04T09:29:08.641Z,952.26
2017-01-04T09:30:08.060Z,952.22
2017-01-04T09:31:08.478Z,952.40
2017-01-04T09:32:08.515Z,952.42
2017-01-04T09:33:09.080Z,952.29
2017-01-04T09:34:08.283Z,952.35
2017-01-04T09:35:08.710Z,952.58
2017-01-04T09:36:07.910Z,952.34
2017-01-04T09:37:07.920Z,952.38
2017-01-04T09:38:08.342Z,952.44
2017-01-04T09:39:08.648Z,952.25
2017-01-04T09:40:07.948Z,952.34
2017-01-04T09:41:08.322Z,952.21
2017-01-04T09:42:08.832Z,952.24
2017-01-04T09:43:07.959Z,952.28
2017-01-04T09:44:08.367Z,952.36
2017-01-04T09:45:08.829Z,952.24
2017-01-04T09:46:07.882Z,952.07
2017-01-04T09:47:08.272Z,952.29
2017-01-04T09:48:08.700Z,952.11
2017-01-04T09:49:07.821Z,952.17
2017-01-04T09:50:08.919Z,952.20
2017-01-04T09:51:08.207Z,952.24
2017-01-04T09:52:08.550Z,952.20
2017-01-04T09:53:10.344Z,952.15
2017-01-04T09:54:08.328Z,952.39
2017-01-04T09:55:10.110Z,952.34
2017-01-04T09:56:08.352Z,952.17
2017-01-04T09:57:08.576Z,952.26
2017-01-04T09:58:09.038Z,952.09
2017-01-04T09:59:08.293Z,952.10
2017-01-04T10:00:10.053Z,951.95
2017-01-04T10:01:08.395Z,951.95
2017-01-04T10:02:08.913Z,951.80
2017-01-04T10:03:08.077Z,951.91
2017-01-04T10:04:08.520Z,951.78
2017-01-04T10:05:08.742Z,951.91
2017-01-04T10:06:07.856Z,951.81
2017-01-04T10:07:07.928Z,951.83
2017-01-04T10:08:08.424Z,951.81
2017-01-04T10:09:08.525Z,951.75
2017-01-04T10:10:08.936Z,951.63
2017-01-04T10:11:08.315Z,951.71
2017-01-04T10:12:08.760Z,951.55
2017-01-04T10:13:07.997Z,951.69
2017-01-04T10:14:08.195Z,951.74
2017-01-04T10:15:08.364Z,951.78
2017-01-04T10:16:08.844Z,951.80
2017-01-04T10:17:08.264Z,951.70
2017-01-04T10:18:08.678Z,951.71
2017-01-04T10:19:08.038Z,951.64
2017-01-04T10:20:08.313Z,951.58
2017-01-04T10:21:08.486Z,951.39
2017-01-04T10:22:08.752Z,951.63
2017-01-04T10:23:08.030Z,951.59
2017-01-04T10:24:08.346Z,951.58
2017-01-04T10:25:09.418Z,951.60
2017-01-04T10:26:08.028Z,951.64
2017-01-04T10:27:08.339Z,951.60
2017-01-04T10:28:09.792Z,951.62
2017-01-04T10:29:07.967Z,951.64
2017-01-04T10:30:08.379Z,951.51
2017-01-04T10:31:08.894Z,951.57
2017-01-04T10:32:08.087Z,951.58
2017-01-04T10:33:08.235Z,951.54
2017-01-04T10:34:09.424Z,951.52
2017-01-04T10:35:08.630Z,951.40
2017-01-04T10:36:08.008Z,951.32
2017-01-04T10:37:08.359Z,952.14
2017-01-04T10:38:08.609Z,951.34
2017-01-04T10:39:07.905Z,951.46
2017-01-04T10:40:08.043Z,951.39
2017-01-04T10:41:08.047Z,951.18
2017-01-04T10:42:08.360Z,951.20
2017-01-04T10:43:09.072Z,951.31
2017-01-04T10:44:08.309Z,951.32
2017-01-04T10:45:08.722Z,951.21
2017-01-04T10:46:08.191Z,951.19
2017-01-04T10:47:08.768Z,951.51
2017-01-04T10:48:07.949Z,951.40
2017-01-04T10:49:08.299Z,951.24
2017-01-04T10:50:08.873Z,951.28
2017-01-04T10:51:08.040Z,951.20
2017-01-04T10:52:08.245Z,951.25
2017-01-04T11:43:08.598Z,950.93
2017-01-04T11:44:08.709Z,950.94
2017-01-04T11:45:07.703Z,950.83
2017-01-04T11:46:08.428Z,950.78
2017-01-04T11:47:08.854Z,950.87
2017-01-04T11:48:08.261Z,950.93
2017-01-04T11:49:08.859Z,950.83
2017-01-04T11:50:08.032Z,950.73
2017-01-04T11:51:08.229Z,950.67
2017-01-04T11:52:08.629Z,950.66
2017-01-04T11:53:07.984Z,950.82
2017-01-04T11:54:08.301Z,950.77
2017-01-04T11:55:09.717Z,950.69
2017-01-04T11:56:08.537Z,950.79
2017-01-04T11:57:08.861Z,950.72
2017-01-04T11:58:08.111Z,950.78
2017-01-04T11:59:08.395Z,950.63
2017-01-04T12:00:09.024Z,950.69
2017-01-04T12:01:09.075Z,950.62
2017-01-04T12:02:08.128Z,950.41
2017-01-04T12:03:08.494Z,950.64
2017-01-04T12:04:08.962Z,950.64
2017-01-04T12:05:08.125Z,950.61
2017-01-04T12:06:08.613Z,950.53
2017-01-04T12:07:08.777Z,950.73
2017-01-04T12:08:08.272Z,950.68
2017-01-04T12:09:08.624Z,950.67
2017-01-04T12:10:08.135Z,950.69
2017-01-04T12:11:08.505Z,950.65
2017-01-04T12:12:09.762Z,950.68
2017-01-04T12:13:07.853Z,950.91
2017-01-04T12:14:09.162Z,950.70
2017-01-04T12:15:08.448Z,950.79
2017-01-04T12:16:09.397Z,950.79
2017-01-04T12:17:08.968Z,950.75
2017-01-04T12:18:08.114Z,950.78
2017-01-04T12:19:08.571Z,950.70
2017-01-04T12:20:07.755Z,950.73
2017-01-04T12:21:08.100Z,950.75
2017-01-04T12:22:08.456Z,950.74
2017-01-04T12:23:08.614Z,950.65
2017-01-04T12:24:08.165Z,950.51
2017-01-04T12:25:08.461Z,950.67
2017-01-04T12:26:08.852Z,950.70
2017-01-04T12:27:08.147Z,950.47
2017-01-04T12:28:08.286Z,950.89
2017-01-04T12:29:08.523Z,950.60
2017-01-04T12:30:09.009Z,950.58
2017-01-04T12:31:08.247Z,950.54
2017-01-04T12:32:08.540Z,950.62
2017-01-04T12:33:08.947Z,950.63
2017-01-04T12:34:08.105Z,950.75
2017-01-04T12:35:08.561Z,950.57
2017-01-04T12:36:08.595Z,950.76
2017-01-04T12:37:08.988Z,950.51
2017-01-04T12:38:08.261Z,950.58
2017-01-04T12:39:08.541Z,950.49
2017-01-04T12:40:08.835Z,950.41
2017-01-04T12:41:07.845Z,950.61
2017-01-04T12:42:08.203Z,950.35
2017-01-04T12:43:08.766Z,950.32
2017-01-04T12:44:08.047Z,950.24
2017-01-04T12:45:08.230Z,950.25
2017-01-04T12:46:08.688Z,950.24
2017-01-04T12:47:07.924Z,950.33
2017-01-04T12:48:08.130Z,950.30
2017-01-04T12:49:08.324Z,950.22
2017-01-04T12:50:08.642Z,950.31
2017-01-04T12:51:08.184Z,950.23
2017-01-04T12:52:08.297Z,950.31
2017-01-04T12:53:08.585Z,950.20
2017-01-04T12:54:08.992Z,950.38
2017-01-04T12:55:08.240Z,950.45
2017-01-04T12:56:08.404Z,950.36
2017-01-04T12:57:08.233Z,950.36
2017-01-04T12:58:08.596Z,950.31
2017-01-04T12:59:07.653Z,950.38
2017-01-04T13:00:07.961Z,950.30
2017-01-04T13:01:08.355Z,950.24
2017-01-04T13:02:08.643Z,950.38
2017-01-04T13:03:07.837Z,950.23
2017-01-04T13:04:07.694Z,950.28
2017-01-04T13:05:07.919Z,950.29
2017-01-04T13:06:08.231Z,950.38
2017-01-04T13:07:08.581Z,950.39
2017-01-04T13:08:07.876Z,950.30
2017-01-04T13:09:09.041Z,950.49
2017-01-04T13:10:13.717Z,950.22
2017-01-04T13:11:09.176Z,950.17
2017-01-04T13:12:08.292Z,950.10
2017-01-04T13:13:08.975Z,950.43
2017-01-04T13:14:38.757Z,950.28
2017-01-04T13:15:09.346Z,950.19
2017-01-04T13:16:08.664Z,950.18
2017-01-04T13:17:07.914Z,950.22
2017-01-04T13:18:08.291Z,950.20
2017-01-04T13:19:08.501Z,950.10
2017-01-04T13:20:08.907Z,950.23
2017-01-04T13:21:08.158Z,950.31